createdAt,value
2022-08-17T00:00:42.640Z,99.90
2022-08-17T00:03:15.062Z,99.90
2022-08-17T00:05:47.322Z,99.90
2022-08-17T00:08:19.025Z,99.90
2022-08-17T00:10:48.696Z,99.90
2022-08-17T00:13:21.294Z,99.90
2022-08-17T00:15:51.081Z,99.90
2022-08-17T00:19:01.837Z,99.90
2022-08-17T00:21:11.582Z,99.90
2022-08-17T00:23:47.810Z,99.90
2022-08-17T00:26:44.273Z,99.90
2022-08-17T00:29:08.276Z,99.90
2022-08-17T00:31:38.603Z,99.90
2022-08-17T00:34:10.045Z,99.90
2022-08-17T00:36:38.391Z,99.90
2022-08-17T00:39:06.648Z,99.90
2022-08-17T00:41:35.850Z,99.90
2022-08-17T00:44:07.080Z,99.90
2022-08-17T00:46:40.962Z,99.90
2022-08-17T00:49:11.506Z,99.90
2022-08-17T00:51:47.404Z,99.90
2022-08-17T00:54:21.394Z,99.90
2022-08-17T00:56:56.230Z,99.90
2022-08-17T00:59:34.821Z,99.90
2022-08-17T01:02:07.159Z,99.90
2022-08-17T01:04:35.553Z,99.90
2022-08-17T01:07:05.913Z,99.90
2022-08-17T01:09:34.958Z,99.90
2022-08-17T01:12:03.125Z,99.90
2022-08-17T01:14:31.558Z,99.90
2022-08-17T01:17:00.270Z,99.90
2022-08-17T01:19:35.805Z,99.90
2022-08-17T01:22:16.887Z,99.90
2022-08-17T01:24:49.298Z,99.90
2022-08-17T01:27:20.650Z,99.90
2022-08-17T01:29:56.808Z,99.90
2022-08-17T01:32:25.597Z,99.90
2022-08-17T01:34:54.609Z,99.90
2022-08-17T01:37:34.461Z,99.90
2022-08-17T01:40:10.253Z,99.90
2022-08-17T01:42:47.716Z,99.90
2022-08-17T01:45:23.053Z,99.90
2022-08-17T01:47:52.130Z,99.90
2022-08-17T01:50:27.138Z,99.90
2022-08-17T01:53:01.475Z,99.90
2022-08-17T01:55:37.867Z,99.90
2022-08-17T01:58:09.605Z,99.90
2022-08-17T02:00:58.185Z,99.90
2022-08-17T02:03:26.735Z,99.90
2022-08-17T02:05:55.533Z,99.90
2022-08-17T02:08:37.298Z,99.90
2022-08-17T02:11:11.816Z,99.90
2022-08-17T02:13:40.255Z,99.90
2022-08-17T02:16:08.289Z,99.90
2022-08-17T02:18:36.361Z,99.90
2022-08-17T02:21:05.246Z,99.90
2022-08-17T02:23:40.439Z,99.90
2022-08-17T02:26:09.334Z,99.90
2022-08-17T02:28:52.355Z,99.90
2022-08-17T02:31:21.287Z,99.90
2022-08-17T02:33:56.873Z,99.90
2022-08-17T02:36:34.755Z,99.90
2022-08-17T02:39:07.321Z,99.90
2022-08-17T02:41:36.523Z,99.90
2022-08-17T02:44:05.841Z,99.90
2022-08-17T02:46:34.335Z,99.90
2022-08-17T02:49:02.268Z,99.90
2022-08-17T02:51:30.260Z,99.90
2022-08-17T02:54:02.188Z,99.90
2022-08-17T02:56:47.685Z,99.90
2022-08-17T02:59:15.626Z,99.90
2022-08-17T03:01:43.645Z,99.90
2022-08-17T03:04:11.661Z,99.90
2022-08-17T03:06:39.581Z,99.90
2022-08-17T03:09:07.489Z,99.90
2022-08-17T03:11:35.580Z,99.90
2022-08-17T03:14:11.036Z,99.90
2022-08-17T03:16:42.054Z,99.90
2022-08-17T03:19:10.497Z,99.90
2022-08-17T03:21:38.452Z,99.90
2022-08-17T03:24:08.970Z,99.90
2022-08-17T03:26:37.514Z,99.90
2022-08-17T03:29:06.746Z,99.90
2022-08-17T03:31:34.655Z,99.90
2022-08-17T03:34:05.178Z,99.90
2022-08-17T03:36:36.152Z,99.90
2022-08-17T03:39:05.538Z,99.90
2022-08-17T03:41:33.717Z,99.90
2022-08-17T03:44:01.904Z,99.90
2022-08-17T03:46:48.714Z,99.90
2022-08-17T03:49:34.384Z,99.90
2022-08-17T03:52:19.973Z,99.90
2022-08-17T03:55:05.416Z,99.90
2022-08-17T03:57:33.574Z,99.90
2022-08-17T04:00:01.587Z,99.90
2022-08-17T04:02:43.595Z,99.90
2022-08-17T04:05:11.545Z,99.90
2022-08-17T04:07:39.490Z,99.90
2022-08-17T04:10:10.399Z,99.90
2022-08-17T04:12:48.461Z,99.90
2022-08-17T04:15:18.410Z,99.90
2022-08-17T04:17:53.007Z,99.90
2022-08-17T04:20:23.715Z,99.90
2022-08-17T04:23:02.098Z,99.90
2022-08-17T04:25:33.155Z,99.90
2022-08-17T04:28:02.733Z,99.90
2022-08-17T04:30:34.391Z,99.90
2022-08-17T04:33:08.546Z,99.90
2022-08-17T04:35:40.333Z,99.90
2022-08-17T04:38:11.100Z,99.90
2022-08-17T04:40:56.841Z,99.90
2022-08-17T04:43:27.949Z,99.90
2022-08-17T04:45:59.662Z,99.90
2022-08-17T04:48:36.877Z,99.90
2022-08-17T04:51:10.342Z,99.90
2022-08-17T04:53:40.161Z,99.90
2022-08-17T04:56:11.796Z,99.90
2022-08-17T04:58:46.717Z,99.90
2022-08-17T05:01:15.615Z,99.90
2022-08-17T05:03:45.344Z,99.90
2022-08-17T05:06:13.330Z,99.90
2022-08-17T05:08:41.410Z,99.90
2022-08-17T05:11:10.191Z,99.90
2022-08-17T05:13:38.182Z,99.90
2022-08-17T05:16:06.953Z,99.90
2022-08-17T05:18:34.887Z,99.90
2022-08-17T05:21:04.195Z,99.90
2022-08-17T05:23:37.871Z,99.90
2022-08-17T05:26:20.406Z,99.90
2022-08-17T05:28:54.567Z,99.90
2022-08-17T05:31:25.072Z,99.90
2022-08-17T05:33:53.310Z,99.90
2022-08-17T05:36:42.015Z,99.90
2022-08-17T05:39:16.707Z,99.90
2022-08-17T05:41:49.065Z,99.90
2022-08-17T05:44:17.751Z,99.90
2022-08-17T05:46:54.310Z,99.90
2022-08-17T05:49:29.203Z,99.90
2022-08-17T05:52:19.955Z,99.90
2022-08-17T05:55:06.610Z,99.90
2022-08-17T05:57:53.413Z,99.90
2022-08-17T06:00:30.647Z,99.90
2022-08-17T06:03:31.574Z,99.90
2022-08-17T06:06:16.890Z,99.90
2022-08-17T06:08:54.114Z,99.90
2022-08-17T06:11:32.382Z,99.90
2022-08-17T06:14:32.112Z,99.90
2022-08-17T06:17:04.794Z,99.90
2022-08-17T06:19:40.400Z,99.90
2022-08-17T06:22:13.814Z,99.90
2022-08-17T06:24:49.970Z,99.90
2022-08-17T06:27:26.201Z,99.90
2022-08-17T06:30:05.387Z,99.90
2022-08-17T06:32:33.364Z,99.90
2022-08-17T06:35:04.450Z,99.90
2022-08-17T06:37:57.288Z,99.90
2022-08-17T06:40:52.608Z,99.90
2022-08-17T06:43:48.191Z,99.90
2022-08-17T06:46:35.280Z,99.90
2022-08-17T06:49:21.989Z,99.90
2022-08-17T06:51:57.608Z,99.90
2022-08-17T06:54:38.872Z,99.90
2022-08-17T06:57:20.963Z,99.90
2022-08-17T06:59:56.240Z,99.90
2022-08-17T07:02:52.579Z,99.90
2022-08-17T07:05:38.697Z,99.90
2022-08-17T07:08:18.554Z,99.90
2022-08-17T07:10:53.942Z,99.90
2022-08-17T07:13:34.636Z,99.90
2022-08-17T07:16:16.642Z,99.90
2022-08-17T07:18:45.244Z,99.90
2022-08-17T07:21:37.985Z,99.90
2022-08-17T07:24:29.992Z,99.90
2022-08-17T07:27:15.477Z,99.90
2022-08-17T07:29:53.532Z,99.90
2022-08-17T07:32:29.178Z,99.90
2022-08-17T07:35:19.949Z,99.90
2022-08-17T07:37:54.092Z,99.90
2022-08-17T07:40:28.300Z,99.90
2022-08-17T07:43:22.259Z,99.90
2022-08-17T07:46:23.479Z,99.90
2022-08-17T07:48:55.163Z,99.90
2022-08-17T07:51:31.214Z,99.90
2022-08-17T07:54:14.250Z,99.90
2022-08-17T07:56:47.994Z,99.90
2022-08-17T07:59:23.848Z,99.90
2022-08-17T08:02:18.737Z,99.90
2022-08-17T08:05:02.081Z,99.90
2022-08-17T08:07:34.685Z,99.90
2022-08-17T08:10:10.633Z,99.90
2022-08-17T08:12:41.574Z,99.90
2022-08-17T08:15:18.517Z,99.90
2022-08-17T08:17:53.481Z,99.90
2022-08-17T08:20:51.433Z,99.90
2022-08-17T08:23:36.906Z,99.90
2022-08-17T08:26:21.332Z,99.90
2022-08-17T08:29:01.655Z,99.90
2022-08-17T08:31:47.734Z,99.90
2022-08-17T08:34:59.073Z,99.00
2022-08-17T08:37:44.387Z,99.20
2022-08-17T08:40:34.541Z,98.70
2022-08-17T08:43:16.467Z,97.80
2022-08-17T08:45:56.528Z,97.30
2022-08-17T08:49:06.456Z,97.70
2022-08-17T08:51:55.451Z,97.50
2022-08-17T08:54:38.826Z,96.80
2022-08-17T08:57:32.750Z,96.60
2022-08-17T09:00:14.660Z,96.00
2022-08-17T09:03:14.633Z,96.30
2022-08-17T09:06:06.016Z,95.50
2022-08-17T09:09:10.476Z,95.40
2022-08-17T09:12:02.812Z,95.40
2022-08-17T09:14:45.187Z,94.80
2022-08-17T09:17:22.144Z,94.70
2022-08-17T09:19:57.219Z,94.90
2022-08-17T09:22:35.345Z,95.00
2022-08-17T09:25:13.035Z,95.00
2022-08-17T09:27:54.880Z,94.60
2022-08-17T09:30:24.984Z,94.20
2022-08-17T09:32:59.566Z,93.80
2022-08-17T09:35:36.990Z,93.40
2022-08-17T09:38:22.162Z,92.70
2022-08-17T09:41:00.763Z,92.20
2022-08-17T09:43:39.821Z,92.50
2022-08-17T09:46:16.867Z,91.80
2022-08-17T09:48:55.236Z,92.40
2022-08-17T09:51:34.171Z,91.70
2022-08-17T09:54:34.989Z,91.20
2022-08-17T09:57:28.617Z,91.10
2022-08-17T10:00:16.952Z,91.40
2022-08-17T10:03:23.622Z,91.10
2022-08-17T10:05:59.755Z,90.80
2022-08-17T10:08:38.654Z,90.80
2022-08-17T10:11:22.400Z,90.00
2022-08-17T10:14:36.406Z,90.30
2022-08-17T10:17:13.158Z,90.10
2022-08-17T10:19:54.132Z,90.00
2022-08-17T10:22:43.799Z,88.70
2022-08-17T10:25:53.521Z,88.10
2022-08-17T10:28:29.462Z,87.60
2022-08-17T10:31:33.062Z,87.30
2022-08-17T10:34:11.942Z,86.10
2022-08-17T10:36:54.712Z,86.80
2022-08-17T10:39:50.361Z,86.40
2022-08-17T10:42:30.535Z,86.40
2022-08-17T10:45:07.761Z,86.80
2022-08-17T10:48:04.626Z,86.20
2022-08-17T10:50:58.529Z,84.80
2022-08-17T10:53:58.316Z,83.60
2022-08-17T10:56:45.049Z,82.90
2022-08-17T10:59:55.133Z,81.80
2022-08-17T11:02:28.808Z,81.10
2022-08-17T11:05:18.591Z,80.90
2022-08-17T11:08:14.357Z,80.90
2022-08-17T11:11:11.235Z,81.80
2022-08-17T11:13:52.045Z,82.70
2022-08-17T11:17:03.030Z,82.00
2022-08-17T11:20:21.017Z,82.80
2022-08-17T11:23:30.294Z,83.30
2022-08-17T11:26:03.939Z,82.70
2022-08-17T11:28:36.802Z,81.60
2022-08-17T11:31:38.038Z,80.80
2022-08-17T11:34:18.508Z,80.50
2022-08-17T11:37:19.353Z,80.30
2022-08-17T11:40:27.744Z,79.20
2022-08-17T11:43:33.027Z,77.20
2022-08-17T11:46:19.497Z,77.10
2022-08-17T11:49:19.661Z,77.00
2022-08-17T11:52:36.056Z,75.40
2022-08-17T11:55:31.768Z,75.90
2022-08-17T11:58:00.938Z,75.60
2022-08-17T12:00:57.397Z,74.70
2022-08-17T12:03:56.013Z,73.60
2022-08-17T12:06:47.512Z,73.30
2022-08-17T12:09:24.587Z,73.10
2022-08-17T12:12:13.374Z,73.40
2022-08-17T12:17:40.739Z,73.80
2022-08-17T12:20:19.148Z,73.90
2022-08-17T12:23:00.895Z,74.80
2022-08-17T12:25:38.908Z,74.10
2022-08-17T12:28:25.307Z,74.00
2022-08-17T12:30:54.747Z,73.20
2022-08-17T12:33:28.628Z,73.50
2022-08-17T12:36:02.773Z,72.80
2022-08-17T12:38:34.714Z,72.20
2022-08-17T12:41:22.404Z,71.20
2022-08-17T12:44:01.553Z,71.00
2022-08-17T12:46:33.664Z,70.80
2022-08-17T12:49:24.635Z,70.20
2022-08-17T12:52:02.883Z,69.50
2022-08-17T12:54:42.996Z,68.60
2022-08-17T12:57:18.187Z,68.50
2022-08-17T12:59:51.792Z,67.70
2022-08-17T13:02:33.383Z,68.30
2022-08-17T13:05:03.024Z,67.90
2022-08-17T13:07:36.289Z,67.10
2022-08-17T13:10:06.000Z,67.50
2022-08-17T13:12:37.154Z,66.90
2022-08-17T13:15:07.707Z,66.80
2022-08-17T13:17:37.748Z,67.00
2022-08-17T13:20:15.609Z,66.60
2022-08-17T13:22:44.489Z,66.50
2022-08-17T13:25:17.764Z,67.20
2022-08-17T13:27:52.787Z,67.10
2022-08-17T13:30:27.959Z,66.40
2022-08-17T13:32:58.376Z,66.30
2022-08-17T13:35:50.174Z,66.30
2022-08-17T13:38:41.071Z,65.30
2022-08-17T13:41:09.043Z,64.20
2022-08-17T13:43:46.359Z,64.40
2022-08-17T13:46:23.845Z,65.00
2022-08-17T13:49:01.888Z,64.70
2022-08-17T13:51:35.155Z,63.60
2022-08-17T13:54:21.397Z,63.80
2022-08-17T13:57:05.862Z,63.80
2022-08-17T13:59:55.158Z,64.60
2022-08-17T14:02:28.254Z,64.90
2022-08-17T14:04:58.507Z,64.80
2022-08-17T14:07:34.758Z,64.70
2022-08-17T14:10:13.068Z,64.50
2022-08-17T14:12:44.621Z,64.70
2022-08-17T14:15:17.635Z,64.70
2022-08-17T14:17:46.078Z,65.30
2022-08-17T14:20:14.814Z,64.50
2022-08-17T14:22:51.260Z,64.40
2022-08-17T14:25:22.757Z,64.60
2022-08-17T14:27:53.952Z,64.90
2022-08-17T14:30:28.815Z,64.90
2022-08-17T14:32:58.440Z,65.00
2022-08-17T14:35:28.027Z,64.60
2022-08-17T14:37:56.864Z,64.40
2022-08-17T14:40:26.266Z,64.90
2022-08-17T14:42:57.809Z,64.80
2022-08-17T14:45:33.281Z,64.70
2022-08-17T14:48:05.513Z,64.50
2022-08-17T14:50:35.791Z,64.00
2022-08-17T14:53:05.243Z,64.30
2022-08-17T14:55:33.591Z,64.90
2022-08-17T14:58:01.644Z,64.30
2022-08-17T15:00:31.370Z,64.40
2022-08-17T15:03:02.260Z,64.70
2022-08-17T15:05:33.835Z,64.40
2022-08-17T15:08:04.641Z,64.50
2022-08-17T15:10:34.243Z,64.80
2022-08-17T15:13:02.373Z,64.30
2022-08-17T15:15:32.068Z,64.50
2022-08-17T15:18:01.005Z,64.40
2022-08-17T15:20:31.167Z,64.10
2022-08-17T15:22:59.907Z,63.50
2022-08-17T15:25:31.695Z,63.60
2022-08-17T15:28:03.038Z,64.00
2022-08-17T15:30:32.866Z,63.70
2022-08-17T15:33:02.126Z,63.80
2022-08-17T15:35:34.133Z,64.20
2022-08-17T15:38:11.970Z,64.70
2022-08-17T15:40:45.542Z,65.00
2022-08-17T15:43:20.106Z,65.40
2022-08-17T15:46:02.921Z,65.20
2022-08-17T15:48:41.918Z,65.80
2022-08-17T15:51:13.922Z,66.10
2022-08-17T15:53:44.633Z,66.70
2022-08-17T15:56:14.887Z,66.70
2022-08-17T15:58:46.513Z,66.50
2022-08-17T16:02:15.377Z,66.60
2022-08-17T16:04:23.576Z,66.70
2022-08-17T16:06:55.388Z,66.80
2022-08-17T16:09:23.306Z,66.40
2022-08-17T16:11:52.053Z,66.60
2022-08-17T16:14:24.095Z,66.50
2022-08-17T16:16:53.703Z,66.00
2022-08-17T16:19:21.699Z,66.30
2022-08-17T16:21:49.633Z,66.50
2022-08-17T16:24:20.160Z,66.20
2022-08-17T16:26:48.384Z,66.20
2022-08-17T16:29:16.673Z,66.70
2022-08-17T16:31:44.752Z,66.10
2022-08-17T16:34:17.482Z,66.30
2022-08-17T16:36:54.852Z,67.60
2022-08-17T16:39:29.647Z,66.20
2022-08-17T16:41:58.472Z,66.50
2022-08-17T16:44:31.602Z,66.70
2022-08-17T16:47:01.252Z,65.80
2022-08-17T16:49:37.059Z,65.90
2022-08-17T16:52:09.544Z,65.50
2022-08-17T16:54:43.296Z,65.90
2022-08-17T16:57:11.920Z,66.10
2022-08-17T16:59:42.704Z,66.10
2022-08-17T17:02:17.898Z,66.30
2022-08-17T17:04:56.030Z,66.80
2022-08-17T17:07:42.219Z,66.90
2022-08-17T17:10:15.330Z,67.20
2022-08-17T17:13:03.804Z,67.70
2022-08-17T17:15:48.231Z,68.00
2022-08-17T17:18:17.577Z,68.20
2022-08-17T17:20:55.667Z,68.70
2022-08-17T17:23:42.019Z,69.00
2022-08-17T17:26:35.170Z,69.10
2022-08-17T17:29:23.156Z,69.40
2022-08-17T17:32:13.907Z,69.50
2022-08-17T17:34:51.077Z,69.90
2022-08-17T17:37:29.474Z,69.90
2022-08-17T17:40:02.085Z,70.30
2022-08-17T17:42:33.106Z,70.40
2022-08-17T17:45:10.626Z,70.50
2022-08-17T17:47:39.016Z,70.70
2022-08-17T17:50:09.262Z,70.80
2022-08-17T17:52:54.488Z,70.90
2022-08-17T17:55:55.927Z,71.00
2022-08-17T17:58:36.789Z,71.40
2022-08-17T18:01:26.271Z,71.30
2022-08-17T18:04:20.740Z,71.90
2022-08-17T18:07:12.255Z,72.30
2022-08-17T18:10:19.433Z,72.70
2022-08-17T18:13:10.674Z,73.50
2022-08-17T18:15:51.313Z,73.30
2022-08-17T18:18:46.954Z,74.00
2022-08-17T18:21:19.508Z,74.90
2022-08-17T18:23:54.964Z,75.40
2022-08-17T18:26:55.195Z,75.60
2022-08-17T18:29:41.527Z,77.10
2022-08-17T18:32:40.771Z,77.60
2022-08-17T18:35:35.022Z,77.50
2022-08-17T18:38:28.299Z,78.20
2022-08-17T18:41:06.552Z,79.40
2022-08-17T18:43:53.136Z,78.70
2022-08-17T18:46:30.142Z,79.30
2022-08-17T18:49:02.055Z,79.50
2022-08-17T18:51:41.094Z,79.30
2022-08-17T18:54:21.564Z,79.70
2022-08-17T18:56:53.830Z,80.10
2022-08-17T18:59:32.167Z,80.00
2022-08-17T19:02:44.724Z,80.60
2022-08-17T19:05:28.793Z,80.40
2022-08-17T19:08:21.374Z,80.70
2022-08-17T19:10:53.950Z,81.30
2022-08-17T19:13:30.174Z,81.50
2022-08-17T19:16:14.136Z,81.60
2022-08-17T19:18:53.072Z,81.70
2022-08-17T19:21:27.852Z,82.00
2022-08-17T19:24:06.593Z,82.20
2022-08-17T19:26:53.513Z,82.50
2022-08-17T19:29:43.092Z,82.60
2022-08-17T19:32:17.712Z,83.00
2022-08-17T19:34:45.897Z,83.20
2022-08-17T19:37:30.739Z,83.30
2022-08-17T19:40:24.530Z,83.10
2022-08-17T19:43:15.773Z,84.00
2022-08-17T19:46:01.408Z,84.90
2022-08-17T19:48:48.297Z,86.30
2022-08-17T19:51:28.090Z,86.80
2022-08-17T19:54:06.958Z,87.20
2022-08-17T19:56:47.626Z,87.60
2022-08-17T19:59:35.966Z,88.10
2022-08-17T20:02:24.726Z,88.30
2022-08-17T20:05:02.146Z,88.00
2022-08-17T20:07:43.136Z,87.70
2022-08-17T20:10:21.583Z,88.80
2022-08-17T20:12:52.795Z,88.60
2022-08-17T20:15:30.598Z,89.80
2022-08-17T20:18:03.204Z,89.10
2022-08-17T20:20:46.913Z,89.20
2022-08-17T20:23:31.622Z,89.40
2022-08-17T20:26:19.275Z,90.00
2022-08-17T20:29:37.182Z,90.20
2022-08-17T20:32:26.440Z,90.30
2022-08-17T20:35:22.390Z,90.50
2022-08-17T20:38:00.022Z,90.40
2022-08-17T20:40:33.588Z,90.80
2022-08-17T20:43:44.345Z,91.00
2022-08-17T20:46:29.568Z,91.10
2022-08-17T20:49:16.434Z,91.30
2022-08-17T20:52:02.180Z,91.80
2022-08-17T20:54:51.067Z,92.30
2022-08-17T20:57:48.799Z,92.70
2022-08-17T21:00:46.366Z,92.80
2022-08-17T21:03:51.797Z,93.00
2022-08-17T21:06:24.568Z,93.30
2022-08-17T21:08:58.886Z,93.60
2022-08-17T21:12:04.289Z,93.70
2022-08-17T21:14:58.597Z,94.10
2022-08-17T21:17:49.740Z,94.20
2022-08-17T21:20:40.104Z,94.30
2022-08-17T21:23:41.344Z,94.50
2022-08-17T21:26:30.799Z,94.70
2022-08-17T21:29:31.170Z,94.80
2022-08-17T21:32:24.561Z,94.80
2022-08-17T21:35:28.413Z,95.00
2022-08-17T21:38:05.030Z,95.30
2022-08-17T21:40:36.349Z,95.30
2022-08-17T21:43:25.523Z,95.30
2022-08-17T21:46:02.897Z,95.40
2022-08-17T21:48:41.432Z,95.20
2022-08-17T21:51:13.889Z,96.00
2022-08-17T21:53:48.926Z,96.20
2022-08-17T21:56:25.694Z,96.60
2022-08-17T21:59:02.062Z,96.60
2022-08-17T22:01:34.813Z,96.60
2022-08-17T22:04:20.276Z,96.90
2022-08-17T22:06:55.822Z,97.20
2022-08-17T22:09:31.652Z,97.40
2022-08-17T22:12:09.888Z,97.30
2022-08-17T22:14:52.629Z,97.50
2022-08-17T22:17:25.440Z,97.50
2022-08-17T22:19:57.707Z,97.80
2022-08-17T22:22:32.682Z,97.90
2022-08-17T22:25:06.864Z,97.80
2022-08-17T22:27:54.322Z,98.40
2022-08-17T22:30:35.211Z,98.60
2022-08-17T22:33:32.281Z,98.40
2022-08-17T22:36:29.585Z,98.60
2022-08-17T22:39:00.543Z,98.70
2022-08-17T22:41:41.683Z,98.80
2022-08-17T22:44:17.993Z,99.00
2022-08-17T22:47:22.136Z,99.30
2022-08-17T22:49:57.352Z,99.50
2022-08-17T22:52:35.522Z,99.60
2022-08-17T22:55:34.473Z,99.60
2022-08-17T22:58:40.222Z,99.70
2022-08-17T23:01:26.398Z,99.90
2022-08-17T23:03:56.724Z,99.90
2022-08-17T23:06:25.156Z,99.90
2022-08-17T23:08:56.269Z,99.90
2022-08-17T23:11:42.815Z,99.90
2022-08-17T23:14:19.020Z,99.90
2022-08-17T23:16:48.619Z,99.90
2022-08-17T23:19:21.041Z,99.90
2022-08-17T23:21:53.819Z,99.90
2022-08-17T23:24:27.272Z,99.90
2022-08-17T23:26:56.991Z,99.90
2022-08-17T23:29:29.486Z,99.90
2022-08-17T23:31:59.960Z,99.90
2022-08-17T23:34:29.291Z,99.90
2022-08-17T23:36:57.644Z,99.90
2022-08-17T23:39:28.039Z,99.90
2022-08-17T23:41:58.049Z,99.90
2022-08-17T23:44:28.742Z,99.90
2022-08-17T23:46:57.166Z,99.90
2022-08-17T23:49:25.320Z,99.90
2022-08-17T23:51:55.252Z,99.90
2022-08-17T23:54:29.779Z,99.90
2022-08-17T23:56:57.747Z,99.90
2022-08-17T23:59:27.450Z,99.90
